createdAt,value
2017-01-09T00:00:02.924Z,0
2017-01-09T00:05:02.501Z,0
2017-01-09T00:10:03.490Z,0
2017-01-09T00:15:03.166Z,0
2017-01-09T00:20:02.753Z,0
2017-01-09T00:25:03.576Z,0
2017-01-09T00:30:02.420Z,0
2017-01-09T00:35:03.015Z,0
2017-01-09T00:40:02.662Z,0
2017-01-09T00:45:03.521Z,0
2017-01-09T00:50:03.306Z,0
2017-01-09T00:55:03.041Z,0
2017-01-09T01:00:02.978Z,0
2017-01-09T01:05:02.736Z,0
2017-01-09T01:10:03.298Z,0
2017-01-09T01:15:02.985Z,0
2017-01-09T01:20:02.783Z,0
2017-01-09T01:25:02.637Z,0
2017-01-09T01:30:03.160Z,0
2017-01-09T01:35:02.868Z,0
2017-01-09T01:40:02.864Z,0
2017-01-09T01:45:02.699Z,0
2017-01-09T01:50:03.496Z,0
2017-01-09T01:55:03.429Z,0
2017-01-09T02:00:03.396Z,0
2017-01-09T02:05:03.120Z,0
2017-01-09T02:10:02.988Z,0
2017-01-09T02:15:02.692Z,0
2017-01-09T02:20:03.262Z,0
2017-01-09T02:25:02.971Z,0
2017-01-09T02:30:02.822Z,0
2017-01-09T02:35:02.611Z,0
2017-01-09T02:40:03.401Z,0
2017-01-09T02:45:03.185Z,0
2017-01-09T02:50:03.173Z,0
2017-01-09T02:55:02.942Z,0
2017-01-09T03:00:02.502Z,0
2017-01-09T03:05:03.416Z,0
2017-01-09T03:10:03.283Z,0
2017-01-09T03:15:02.903Z,0
2017-01-09T03:20:02.443Z,0
2017-01-09T03:25:03.203Z,0
2017-01-09T03:30:03.070Z,0
2017-01-09T03:35:02.976Z,0
2017-01-09T03:40:02.665Z,0
2017-01-09T03:45:02.560Z,0
2017-01-09T03:50:03.089Z,0
2017-01-09T03:55:02.666Z,0
2017-01-09T04:00:02.497Z,0
2017-01-09T04:05:03.236Z,0
2017-01-09T04:10:03.106Z,0
2017-01-09T04:15:03.130Z,0
2017-01-09T04:20:02.915Z,0
2017-01-09T04:25:02.859Z,0
2017-01-09T04:30:02.628Z,0
2017-01-09T04:35:02.617Z,0
2017-01-09T04:40:02.614Z,0
2017-01-09T04:45:02.502Z,0
2017-01-09T04:50:03.175Z,0
2017-01-09T04:55:02.938Z,0
2017-01-09T05:00:02.468Z,0
2017-01-09T05:05:03.354Z,0
2017-01-09T05:10:03.301Z,0
2017-01-09T05:15:03.281Z,0
2017-01-09T05:20:03.093Z,0
2017-01-09T05:25:02.944Z,0
2017-01-09T05:30:02.848Z,0
2017-01-09T05:35:02.669Z,0
2017-01-09T05:40:02.521Z,0
2017-01-09T05:45:03.499Z,0
2017-01-09T05:50:03.397Z,0
2017-01-09T05:55:03.250Z,0
2017-01-09T06:00:02.980Z,0
2017-01-09T06:05:02.853Z,0
2017-01-09T06:10:02.680Z,0
2017-01-09T06:15:03.174Z,0
2017-01-09T06:20:03.079Z,0
2017-01-09T06:25:02.900Z,0
2017-01-09T06:30:02.799Z,0
2017-01-09T06:35:03.374Z,0
2017-01-09T06:40:03.266Z,0
2017-01-09T06:45:03.172Z,0
2017-01-09T06:50:02.795Z,0
2017-01-09T06:55:02.568Z,0
2017-01-09T07:00:03.545Z,0
2017-01-09T07:05:03.037Z,1
2017-01-09T07:10:02.921Z,3
2017-01-09T07:15:02.662Z,10
2017-01-09T07:20:03.246Z,27
2017-01-09T07:25:02.805Z,37
2017-01-09T07:30:02.658Z,47
2017-01-09T07:35:03.347Z,58
2017-01-09T07:40:03.085Z,65
2017-01-09T07:45:02.842Z,81
2017-01-09T07:50:02.610Z,87
2017-01-09T07:55:03.281Z,125
2017-01-09T08:00:03.080Z,186
2017-01-09T08:05:03.023Z,293
2017-01-09T08:10:03.277Z,409
2017-01-09T08:15:03.024Z,492
2017-01-09T08:20:02.815Z,542
2017-01-09T08:25:02.632Z,556
2017-01-09T08:30:03.520Z,593
2017-01-09T08:35:03.581Z,651
2017-01-09T08:40:03.185Z,517
2017-01-09T08:45:03.042Z,552
2017-01-09T08:50:03.033Z,607
2017-01-09T08:55:03.089Z,888
2017-01-09T09:00:02.884Z,1000
2017-01-09T09:05:02.792Z,1000
2017-01-09T09:10:02.620Z,1000
2017-01-09T09:15:03.253Z,2000
2017-01-09T09:20:03.014Z,1000
2017-01-09T09:25:02.817Z,1000
2017-01-09T09:30:02.664Z,1000
2017-01-09T09:35:02.620Z,2000
2017-01-09T09:40:02.631Z,2000
2017-01-09T09:45:03.471Z,2000
2017-01-09T09:50:02.476Z,2000
2017-01-09T09:55:03.438Z,2000
2017-01-09T10:00:03.389Z,2000
2017-01-09T10:05:03.306Z,2000
2017-01-09T10:10:03.407Z,2000
2017-01-09T10:15:02.738Z,2000
2017-01-09T10:20:03.005Z,3000
2017-01-09T10:25:03.282Z,4000
2017-01-09T10:30:02.960Z,2000
2017-01-09T10:35:02.916Z,3000
2017-01-09T10:40:03.128Z,2000
2017-01-09T10:45:03.132Z,2000
2017-01-09T10:50:03.091Z,1000
2017-01-09T10:55:03.188Z,658
2017-01-09T11:00:03.158Z,909
2017-01-09T11:05:03.117Z,1000
2017-01-09T11:10:03.230Z,1000
2017-01-09T11:15:03.430Z,1000
2017-01-09T11:20:02.593Z,1000
2017-01-09T11:25:03.126Z,1000
2017-01-09T11:30:03.379Z,1000
2017-01-09T11:35:03.398Z,1000
2017-01-09T11:40:03.141Z,1000
2017-01-09T11:45:03.033Z,2000
2017-01-09T11:50:03.142Z,1000
2017-01-09T11:55:03.165Z,2000
2017-01-09T12:00:02.522Z,2000
2017-01-09T12:05:02.625Z,2000
2017-01-09T12:10:02.756Z,2000
2017-01-09T12:15:02.944Z,3000
2017-01-09T12:20:03.371Z,4000
2017-01-09T12:25:02.479Z,3000
2017-01-09T12:30:03.369Z,4000
2017-01-09T12:35:03.111Z,3000
2017-01-09T12:40:03.300Z,5000
2017-01-09T12:45:03.376Z,5000
2017-01-09T12:50:03.047Z,5000
2017-01-09T12:55:02.496Z,6000
2017-01-09T13:00:03.014Z,6000
2017-01-09T13:05:03.436Z,4000
2017-01-09T13:10:02.961Z,4000
2017-01-09T13:15:02.490Z,5000
2017-01-09T13:20:03.066Z,4000
2017-01-09T13:25:02.645Z,2000
2017-01-09T13:30:02.945Z,2000
2017-01-09T13:35:03.606Z,2000
2017-01-09T13:40:02.857Z,2000
2017-01-09T13:45:03.124Z,1000
2017-01-09T13:50:02.527Z,1000
2017-01-09T13:55:03.114Z,1000
2017-01-09T14:00:03.380Z,1000
2017-01-09T14:05:02.895Z,1000
2017-01-09T14:10:03.347Z,2000
2017-01-09T14:15:02.927Z,1000
2017-01-09T14:20:02.602Z,1000
2017-01-09T14:25:02.676Z,1000
2017-01-09T14:30:02.621Z,1000
2017-01-09T14:35:03.144Z,1000
2017-01-09T14:40:02.777Z,844
2017-01-09T14:45:03.406Z,675
2017-01-09T14:50:03.439Z,580
2017-01-09T14:55:03.221Z,718
2017-01-09T15:00:02.496Z,980
2017-01-09T15:05:03.007Z,735
2017-01-09T15:10:02.763Z,427
2017-01-09T15:15:02.726Z,305
2017-01-09T15:20:03.341Z,431
2017-01-09T15:25:02.847Z,502
2017-01-09T15:30:03.344Z,237
2017-01-09T15:35:03.003Z,150
2017-01-09T15:40:02.448Z,70
2017-01-09T15:45:03.139Z,66
2017-01-09T15:50:02.910Z,75
2017-01-09T15:55:02.901Z,38
2017-01-09T16:00:02.599Z,27
2017-01-09T16:05:03.057Z,18
2017-01-09T16:10:02.610Z,6
2017-01-09T16:15:03.087Z,2
2017-01-09T16:20:02.670Z,0
2017-01-09T16:25:03.324Z,0
2017-01-09T16:30:03.120Z,0
2017-01-09T16:35:02.861Z,0
2017-01-09T16:40:03.418Z,0
2017-01-09T16:45:02.954Z,0
2017-01-09T16:50:02.892Z,0
2017-01-09T16:55:03.429Z,0
2017-01-09T17:00:03.125Z,0
2017-01-09T17:05:03.116Z,0
2017-01-09T17:10:02.624Z,0
2017-01-09T17:15:03.307Z,0
2017-01-09T17:20:02.681Z,0
2017-01-09T17:25:03.068Z,0
2017-01-09T17:30:02.733Z,0
2017-01-09T17:35:03.325Z,0
2017-01-09T17:40:02.650Z,0
2017-01-09T17:45:03.123Z,0
2017-01-09T17:50:02.466Z,0
2017-01-09T18:05:02.666Z,0
2017-01-09T18:10:03.327Z,0
2017-01-09T18:15:02.716Z,0
2017-01-09T18:20:03.045Z,0
2017-01-09T18:25:03.410Z,0
2017-01-09T18:30:02.875Z,0
2017-01-09T18:35:02.464Z,0
2017-01-09T18:40:03.096Z,0
2017-01-09T18:45:03.442Z,0
2017-01-09T18:50:02.863Z,0
2017-01-09T18:55:02.908Z,0
2017-01-09T19:00:03.336Z,0
2017-01-09T19:05:02.695Z,0
2017-01-09T19:10:03.090Z,0
2017-01-09T19:15:03.289Z,0
2017-01-09T19:20:02.620Z,0
2017-01-09T19:25:02.838Z,0
2017-01-09T19:30:03.243Z,0
2017-01-09T19:35:03.158Z,0
2017-01-09T19:40:03.014Z,0
2017-01-09T19:45:03.088Z,0
2017-01-09T19:55:02.742Z,0
2017-01-09T20:00:03.295Z,0
2017-01-09T20:05:03.106Z,0
2017-01-09T20:10:03.245Z,0
2017-01-09T20:15:03.150Z,0
2017-01-09T20:20:03.463Z,0
2017-01-09T20:25:03.267Z,0
2017-01-09T20:30:02.633Z,0
2017-01-09T20:35:03.060Z,0
2017-01-09T20:40:03.033Z,0
2017-01-09T20:45:02.632Z,0
2017-01-09T20:50:02.663Z,0
2017-01-09T20:55:03.262Z,0
2017-01-09T21:00:02.537Z,0
2017-01-09T21:05:03.045Z,0
2017-01-09T21:10:02.849Z,0
2017-01-09T21:15:03.041Z,0
2017-01-09T21:20:02.651Z,0
2017-01-09T21:25:03.165Z,0
2017-01-09T21:30:02.743Z,0
2017-01-09T21:35:03.332Z,0
2017-01-09T21:40:02.900Z,0
2017-01-09T21:45:03.162Z,0
2017-01-09T21:50:02.874Z,0
2017-01-09T21:55:02.578Z,0
2017-01-09T22:00:02.896Z,0
2017-01-09T22:05:02.680Z,0
2017-01-09T22:10:02.921Z,0
2017-01-09T22:15:03.006Z,0
2017-01-09T22:20:03.021Z,0
2017-01-09T22:25:02.573Z,0
2017-01-09T22:30:03.206Z,0
2017-01-09T22:35:02.794Z,0
2017-01-09T22:40:02.950Z,0
2017-01-09T22:45:02.869Z,0
2017-01-09T22:50:03.448Z,0
2017-01-09T22:55:03.207Z,0
2017-01-09T23:00:02.696Z,0
2017-01-09T23:05:03.428Z,0
2017-01-09T23:10:03.314Z,0
2017-01-09T23:15:02.885Z,0
2017-01-09T23:20:02.680Z,0
2017-01-09T23:25:02.460Z,0
2017-01-09T23:30:02.989Z,0
2017-01-09T23:35:02.864Z,0
2017-01-09T23:40:02.943Z,0
2017-01-09T23:45:02.829Z,0
2017-01-09T23:50:02.634Z,0
2017-01-09T23:55:02.469Z,0
